createdAt,value
2022-10-25T00:00:09.040Z,39.4410
2022-10-25T00:00:20.104Z,39.4820
2022-10-25T00:00:31.313Z,39.4880
2022-10-25T00:00:42.512Z,39.5430
2022-10-25T00:00:53.715Z,39.4610
2022-10-25T00:01:04.945Z,39.4460
2022-10-25T00:01:16.214Z,39.4460
2022-10-25T00:01:27.651Z,39.4460
2022-10-25T00:01:38.983Z,39.5150
2022-10-25T00:01:50.225Z,39.5670
2022-10-25T00:02:01.500Z,39.5990
2022-10-25T00:02:12.921Z,39.5940
2022-10-25T00:02:24.483Z,39.5820
2022-10-25T00:02:35.939Z,39.4940
2022-10-25T00:02:47.065Z,39.4580
2022-10-25T00:02:58.183Z,39.4290
2022-10-25T00:03:09.384Z,39.4400
2022-10-25T00:03:20.583Z,39.4820
2022-10-25T00:03:31.631Z,39.4820
2022-10-25T00:03:42.674Z,39.4880
2022-10-25T00:03:53.713Z,39.4770
2022-10-25T00:04:04.758Z,39.4290
2022-10-25T00:04:15.988Z,39.3940
2022-10-25T00:04:27.044Z,39.4120
2022-10-25T00:04:38.109Z,39.4020
2022-10-25T00:04:49.172Z,39.4120
2022-10-25T00:05:00.231Z,39.4000
2022-10-25T00:05:11.303Z,39.4460
2022-10-25T00:05:22.504Z,39.3940
2022-10-25T00:05:33.708Z,39.3870
2022-10-25T00:05:44.900Z,39.3750
2022-10-25T00:05:56.104Z,39.4120
2022-10-25T00:06:07.181Z,39.4640
2022-10-25T00:06:18.259Z,39.4710
2022-10-25T00:06:29.389Z,39.4350
2022-10-25T00:06:40.584Z,39.3940
2022-10-25T00:06:51.783Z,39.3870
2022-10-25T00:07:02.983Z,39.3640
2022-10-25T00:07:14.220Z,39.3640
2022-10-25T00:07:25.384Z,39.3870
2022-10-25T00:07:36.583Z,39.4140
2022-10-25T00:07:48.149Z,39.4200
2022-10-25T00:07:59.361Z,39.4200
2022-10-25T00:08:10.502Z,39.3970
2022-10-25T00:08:21.703Z,39.4460
2022-10-25T00:08:32.904Z,39.4350
2022-10-25T00:08:44.105Z,39.4060
2022-10-25T00:08:55.305Z,39.3810
2022-10-25T00:09:06.356Z,39.3750
2022-10-25T00:09:17.423Z,39.3870
2022-10-25T00:09:28.583Z,39.3640
2022-10-25T00:09:39.786Z,39.3700
2022-10-25T00:09:51.014Z,39.3810
2022-10-25T00:10:02.191Z,39.3790
2022-10-25T00:10:13.232Z,39.3740
2022-10-25T00:10:25.751Z,39.4080
2022-10-25T00:10:37.064Z,39.4680
2022-10-25T00:10:48.263Z,39.4440
2022-10-25T00:10:59.303Z,39.4080
2022-10-25T00:11:10.343Z,39.3910
2022-10-25T00:11:21.543Z,39.3970
2022-10-25T00:11:32.752Z,39.4020
2022-10-25T00:11:43.944Z,39.4020
2022-10-25T00:11:55.144Z,39.4390
2022-10-25T00:12:06.343Z,39.4330
2022-10-25T00:12:17.545Z,39.4440
2022-10-25T00:12:28.665Z,39.4620
2022-10-25T00:12:50.824Z,39.4560
2022-10-25T00:13:02.024Z,39.4560
2022-10-25T00:13:13.231Z,39.4560
2022-10-25T00:13:24.423Z,39.4580
2022-10-25T00:13:35.634Z,39.4560
2022-10-25T00:13:46.822Z,39.4910
2022-10-25T00:13:58.024Z,39.5120
2022-10-25T00:14:09.223Z,39.5430
2022-10-25T00:14:20.426Z,39.5600
2022-10-25T00:14:31.464Z,39.5600
2022-10-25T00:14:42.515Z,39.5310
2022-10-25T00:14:53.603Z,39.5430
2022-10-25T00:15:04.709Z,39.5600
2022-10-25T00:15:15.733Z,39.5600
2022-10-25T00:15:26.843Z,39.5600
2022-10-25T00:15:37.912Z,39.5430
2022-10-25T00:15:49.074Z,39.5310
2022-10-25T00:16:00.267Z,39.5540
2022-10-25T00:16:11.465Z,39.5660
2022-10-25T00:16:22.502Z,39.6100
2022-10-25T00:16:33.562Z,39.5990
2022-10-25T00:16:44.760Z,39.6040
2022-10-25T00:16:55.794Z,39.6100
2022-10-25T00:17:06.914Z,39.6220
2022-10-25T00:17:18.023Z,39.6330
2022-10-25T00:17:29.063Z,39.6550
2022-10-25T00:17:40.185Z,39.6870
2022-10-25T00:17:51.224Z,39.7040
2022-10-25T00:18:02.284Z,39.7230
2022-10-25T00:18:13.397Z,39.6900
2022-10-25T00:18:24.583Z,39.6480
2022-10-25T00:18:35.625Z,39.6330
2022-10-25T00:18:46.674Z,39.6330
2022-10-25T00:18:57.871Z,39.6390
2022-10-25T00:19:08.983Z,39.6330
2022-10-25T00:19:20.054Z,39.6330
2022-10-25T00:19:31.152Z,39.7040
2022-10-25T00:19:42.193Z,39.6750
2022-10-25T00:19:53.313Z,39.6690
2022-10-25T00:20:04.454Z,39.6390
2022-10-25T00:20:15.512Z,39.6310
2022-10-25T00:20:26.579Z,39.6250
2022-10-25T00:20:37.722Z,39.6140
2022-10-25T00:20:48.797Z,39.6190
2022-10-25T00:20:59.928Z,39.6310
2022-10-25T00:21:11.034Z,39.6480
2022-10-25T00:21:22.185Z,39.6370
2022-10-25T00:21:33.390Z,39.6480
2022-10-25T00:21:44.584Z,39.6480
2022-10-25T00:21:55.623Z,39.6140
2022-10-25T00:22:06.663Z,39.6190
2022-10-25T00:22:17.738Z,39.6080
2022-10-25T00:22:28.763Z,39.6310
2022-10-25T00:22:39.943Z,39.6770
2022-10-25T00:22:51.147Z,39.6710
2022-10-25T00:23:02.196Z,39.6660
2022-10-25T00:23:13.242Z,39.6420
2022-10-25T00:23:24.423Z,39.6660
2022-10-25T00:23:35.478Z,39.6660
2022-10-25T00:23:46.608Z,39.6480
2022-10-25T00:23:57.703Z,39.6900
2022-10-25T00:24:08.744Z,39.7040
2022-10-25T00:24:19.793Z,39.6590
2022-10-25T00:24:30.843Z,39.6190
2022-10-25T00:24:41.913Z,39.6190
2022-10-25T00:24:53.062Z,39.6300
2022-10-25T00:25:04.264Z,39.6210
2022-10-25T00:25:15.323Z,39.6570
2022-10-25T00:25:26.412Z,39.7040
2022-10-25T00:25:37.552Z,39.7340
2022-10-25T00:25:48.752Z,39.7340
2022-10-25T00:25:59.942Z,39.7690
2022-10-25T00:26:11.144Z,39.7750
2022-10-25T00:26:22.343Z,39.7570
2022-10-25T00:26:33.545Z,39.7510
2022-10-25T00:26:44.744Z,39.7860
2022-10-25T00:26:55.943Z,39.7150
2022-10-25T00:27:07.144Z,39.6960
2022-10-25T00:27:18.183Z,39.7020
2022-10-25T00:27:29.227Z,39.6960
2022-10-25T00:27:40.428Z,39.6840
2022-10-25T00:27:51.522Z,39.6920
2022-10-25T00:28:02.582Z,39.7190
2022-10-25T00:28:13.704Z,39.7790
2022-10-25T00:28:24.912Z,39.8020
2022-10-25T00:28:36.038Z,39.7960
2022-10-25T00:28:47.101Z,39.8070
2022-10-25T00:28:58.183Z,39.7730
2022-10-25T00:29:09.471Z,39.7370
2022-10-25T00:29:20.644Z,39.7600
2022-10-25T00:29:31.706Z,39.7190
2022-10-25T00:29:42.774Z,39.7280
2022-10-25T00:29:53.871Z,39.7080
2022-10-25T00:30:04.914Z,39.7020
2022-10-25T00:30:15.973Z,39.7190
2022-10-25T00:30:27.146Z,39.7540
2022-10-25T00:30:38.184Z,39.8020
2022-10-25T00:30:49.224Z,39.7840
2022-10-25T00:31:00.425Z,39.7310
2022-10-25T00:31:11.631Z,39.7250
2022-10-25T00:31:22.837Z,39.7130
2022-10-25T00:31:34.034Z,39.7370
2022-10-25T00:31:45.084Z,39.7540
2022-10-25T00:31:56.163Z,39.7480
2022-10-25T00:32:07.305Z,39.7540
2022-10-25T00:32:18.512Z,39.7670
2022-10-25T00:32:29.703Z,39.7840
2022-10-25T00:32:40.901Z,39.7730
2022-10-25T00:32:52.103Z,39.7670
2022-10-25T00:33:03.303Z,39.7900
2022-10-25T00:33:14.503Z,39.8310
2022-10-25T00:33:25.704Z,39.7900
2022-10-25T00:33:36.903Z,39.7840
2022-10-25T00:33:47.944Z,39.7750
2022-10-25T00:33:59.063Z,39.7750
2022-10-25T00:34:10.183Z,39.8110
2022-10-25T00:34:21.383Z,39.8230
2022-10-25T00:34:32.589Z,39.8340
2022-10-25T00:34:43.784Z,39.8400
2022-10-25T00:34:54.833Z,39.8230
2022-10-25T00:35:05.909Z,39.8340
2022-10-25T00:35:17.098Z,39.8400
2022-10-25T00:35:28.263Z,39.8440
2022-10-25T00:35:39.464Z,39.8380
2022-10-25T00:35:50.671Z,39.8500
2022-10-25T00:36:01.753Z,39.8440
2022-10-25T00:36:12.812Z,39.8380
2022-10-25T00:36:23.943Z,39.8460
2022-10-25T00:36:35.144Z,39.8380
2022-10-25T00:36:46.346Z,39.8440
2022-10-25T00:36:57.543Z,39.8440
2022-10-25T00:37:08.743Z,39.8440
2022-10-25T00:37:19.971Z,39.8460
2022-10-25T00:37:31.209Z,39.8460
2022-10-25T00:37:42.343Z,39.8710
2022-10-25T00:37:53.543Z,39.8710
2022-10-25T00:38:04.597Z,39.8830
2022-10-25T00:38:15.634Z,39.9350
2022-10-25T00:38:26.831Z,40.0150
2022-10-25T00:38:38.031Z,39.9790
2022-10-25T00:38:49.237Z,39.9270
2022-10-25T00:39:00.423Z,39.9120
2022-10-25T00:39:11.624Z,39.8940
2022-10-25T00:39:22.831Z,39.9120
2022-10-25T00:39:34.024Z,39.9060
2022-10-25T00:39:45.225Z,39.9150
2022-10-25T00:39:56.423Z,39.9020
2022-10-25T00:40:07.474Z,39.8850
2022-10-25T00:40:18.543Z,39.8730
2022-10-25T00:40:29.702Z,39.8670
2022-10-25T00:40:40.903Z,39.8850
2022-10-25T00:40:52.104Z,39.8960
2022-10-25T00:41:03.308Z,39.8960
2022-10-25T00:41:14.352Z,39.9150
2022-10-25T00:41:25.423Z,39.9090
2022-10-25T00:41:36.584Z,39.9090
2022-10-25T00:41:47.784Z,39.8960
2022-10-25T00:41:59.001Z,39.9320
2022-10-25T00:42:10.183Z,39.9210
2022-10-25T00:42:21.382Z,39.9150
2022-10-25T00:42:32.583Z,39.9320
2022-10-25T00:42:44.075Z,39.9350
2022-10-25T00:42:55.373Z,39.9590
2022-10-25T00:43:06.504Z,39.9650
2022-10-25T00:43:17.713Z,39.9590
2022-10-25T00:43:28.905Z,39.9650
2022-10-25T00:43:40.110Z,39.9650
2022-10-25T00:43:51.155Z,39.9540
2022-10-25T00:44:02.194Z,39.9890
2022-10-25T00:44:13.272Z,40.0540
2022-10-25T00:44:24.334Z,40.0360
2022-10-25T00:44:35.464Z,39.9940
2022-10-25T00:44:46.665Z,39.9830
2022-10-25T00:44:57.725Z,40.0120
2022-10-25T00:45:08.767Z,40.0000
2022-10-25T00:45:19.981Z,40.0060
2022-10-25T00:45:31.034Z,39.9940
2022-10-25T00:45:42.093Z,40.0250
2022-10-25T00:45:53.250Z,40.0040
2022-10-25T00:46:04.425Z,40.0100
2022-10-25T00:46:15.624Z,40.0270
2022-10-25T00:46:26.837Z,40.0150
2022-10-25T00:46:37.873Z,40.0210
2022-10-25T00:46:48.950Z,40.0890
2022-10-25T00:47:00.103Z,40.0600
2022-10-25T00:47:11.311Z,40.0420
2022-10-25T00:47:22.503Z,40.0330
2022-10-25T00:47:33.704Z,40.0500
2022-10-25T00:47:44.950Z,40.0630
2022-10-25T00:47:56.480Z,40.0750
2022-10-25T00:48:07.624Z,40.0630
2022-10-25T00:48:18.723Z,40.0630
2022-10-25T00:48:29.789Z,40.0500
2022-10-25T00:48:40.911Z,40.0630
2022-10-25T00:48:52.101Z,40.0690
2022-10-25T00:49:03.158Z,40.0810
2022-10-25T00:49:14.203Z,40.0750
2022-10-25T00:49:25.383Z,40.0630
2022-10-25T00:49:36.582Z,40.0980
2022-10-25T00:49:47.633Z,40.1580
2022-10-25T00:49:58.712Z,40.1350
2022-10-25T00:50:09.864Z,40.1040
2022-10-25T00:50:21.085Z,40.1350
2022-10-25T00:50:32.264Z,40.1920
2022-10-25T00:50:43.463Z,40.2230
2022-10-25T00:50:54.664Z,40.1810
2022-10-25T00:51:05.862Z,40.1750
2022-10-25T00:51:17.063Z,40.1420
2022-10-25T00:51:28.263Z,40.1400
2022-10-25T00:51:39.463Z,40.1980
2022-10-25T00:51:50.503Z,40.2290
2022-10-25T00:52:01.544Z,40.2170
2022-10-25T00:52:12.742Z,40.2040
2022-10-25T00:52:24.007Z,40.1980
2022-10-25T00:52:35.144Z,40.2170
2022-10-25T00:52:46.346Z,40.2400
2022-10-25T00:52:57.383Z,40.2750
2022-10-25T00:53:08.427Z,40.2420
2022-10-25T00:53:19.625Z,40.1980
2022-10-25T00:53:30.829Z,40.1810
2022-10-25T00:53:42.024Z,40.1460
2022-10-25T00:53:53.223Z,40.1870
2022-10-25T00:54:04.262Z,40.2100
2022-10-25T00:54:15.342Z,40.2170
2022-10-25T00:54:26.511Z,40.2750
2022-10-25T00:54:37.703Z,40.3120
2022-10-25T00:54:48.903Z,40.2400
2022-10-25T00:55:00.117Z,40.1920
2022-10-25T00:55:11.143Z,40.1920
2022-10-25T00:55:22.242Z,40.1720
2022-10-25T00:55:33.383Z,40.1720
2022-10-25T00:55:44.583Z,40.1780
2022-10-25T00:55:55.783Z,40.1840
2022-10-25T00:56:06.986Z,40.1780
2022-10-25T00:56:18.030Z,40.1550
2022-10-25T00:56:29.063Z,40.1550
2022-10-25T00:56:40.263Z,40.1400
2022-10-25T00:56:51.464Z,40.1460
2022-10-25T00:57:02.665Z,40.1690
2022-10-25T00:57:13.873Z,40.1690
2022-10-25T00:57:25.064Z,40.1460
2022-10-25T00:57:36.263Z,40.1350
2022-10-25T00:57:47.756Z,40.1100
2022-10-25T00:57:59.035Z,40.1460
2022-10-25T00:58:10.193Z,40.1400
2022-10-25T00:58:21.389Z,40.1400
2022-10-25T00:58:32.502Z,40.1810
2022-10-25T00:58:43.562Z,40.1580
2022-10-25T00:58:54.663Z,40.1350
2022-10-25T00:59:05.870Z,40.1210
2022-10-25T00:59:16.923Z,40.1350
2022-10-25T00:59:27.993Z,40.1380
2022-10-25T00:59:39.042Z,40.1610
2022-10-25T00:59:50.193Z,40.1660
2022-10-25T01:00:01.273Z,40.1720
2022-10-25T01:00:12.423Z,40.2100
2022-10-25T01:00:23.664Z,40.2170
2022-10-25T01:00:34.831Z,40.2230
2022-10-25T01:00:46.037Z,40.1870
2022-10-25T01:00:57.231Z,40.1520
2022-10-25T01:01:08.566Z,40.1350
2022-10-25T01:01:19.734Z,40.1350
2022-10-25T01:01:30.993Z,40.1270
2022-10-25T01:01:42.527Z,40.1580
2022-10-25T01:01:53.641Z,40.1460
2022-10-25T01:02:04.943Z,40.1270
2022-10-25T01:02:16.192Z,40.1460
2022-10-25T01:02:27.638Z,40.1460
2022-10-25T01:02:38.862Z,40.1520
2022-10-25T01:02:50.142Z,40.1550
2022-10-25T01:03:01.410Z,40.1780
2022-10-25T01:03:12.584Z,40.1940
2022-10-25T01:03:23.632Z,40.2170
2022-10-25T01:03:34.707Z,40.2650
2022-10-25T01:03:45.872Z,40.3110
2022-10-25T01:03:57.065Z,40.3230
2022-10-25T01:04:08.262Z,40.2490
2022-10-25T01:04:19.471Z,40.2200
2022-10-25T01:04:30.671Z,40.1990
2022-10-25T01:04:41.864Z,40.2050
2022-10-25T01:04:53.065Z,40.2290
2022-10-25T01:05:04.263Z,40.2880
2022-10-25T01:05:15.475Z,40.2530
2022-10-25T01:05:26.556Z,40.2340
2022-10-25T01:05:37.625Z,40.2230
2022-10-25T01:05:48.742Z,40.2230
2022-10-25T01:05:59.944Z,40.2170
2022-10-25T01:06:11.149Z,40.2290
2022-10-25T01:06:22.346Z,40.2460
2022-10-25T01:06:33.551Z,40.2530
2022-10-25T01:06:44.742Z,40.2880
2022-10-25T01:06:55.961Z,40.3000
2022-10-25T01:07:07.143Z,40.3230
2022-10-25T01:07:18.344Z,40.3230
2022-10-25T01:07:29.458Z,40.3420
2022-10-25T01:07:40.493Z,40.3170
2022-10-25T01:07:51.623Z,40.2590
2022-10-25T01:08:02.823Z,40.2590
2022-10-25T01:08:13.898Z,40.2530
2022-10-25T01:08:24.971Z,40.2650
2022-10-25T01:08:36.023Z,40.3050
2022-10-25T01:08:47.093Z,40.3170
2022-10-25T01:08:58.183Z,40.2910
2022-10-25T01:09:09.224Z,40.2550
2022-10-25T01:09:20.264Z,40.2380
2022-10-25T01:09:31.365Z,40.2320
2022-10-25T01:09:42.403Z,40.2170
2022-10-25T01:09:53.543Z,40.2260
2022-10-25T01:10:04.752Z,40.2200
2022-10-25T01:10:15.802Z,40.2320
2022-10-25T01:10:26.903Z,40.2320
2022-10-25T01:10:38.031Z,40.2670
2022-10-25T01:10:49.074Z,40.2970
2022-10-25T01:11:00.152Z,40.2720
2022-10-25T01:11:11.331Z,40.2490
2022-10-25T01:11:22.504Z,40.2720
2022-10-25T01:11:33.703Z,40.2610
2022-10-25T01:11:44.916Z,40.2460
2022-10-25T01:11:56.106Z,40.2460
2022-10-25T01:12:07.310Z,40.2400
2022-10-25T01:12:18.503Z,40.2750
2022-10-25T01:12:29.704Z,40.3000
2022-10-25T01:12:40.903Z,40.2640
2022-10-25T01:12:52.368Z,40.2350
2022-10-25T01:13:03.673Z,40.3060
2022-10-25T01:13:14.824Z,40.3000
2022-10-25T01:13:26.025Z,40.2460
2022-10-25T01:13:37.231Z,40.2040
2022-10-25T01:13:48.263Z,40.2100
2022-10-25T01:13:59.303Z,40.2170
2022-10-25T01:14:10.502Z,40.2170
2022-10-25T01:14:21.547Z,40.2290
2022-10-25T01:14:32.584Z,40.2640
2022-10-25T01:14:43.789Z,40.3230
2022-10-25T01:14:54.823Z,40.2870
2022-10-25T01:15:05.863Z,40.2640
2022-10-25T01:15:17.071Z,40.2350
2022-10-25T01:15:28.293Z,40.2290
2022-10-25T01:15:39.347Z,40.2400
2022-10-25T01:15:50.418Z,40.2400
2022-10-25T01:16:01.464Z,40.2690
2022-10-25T01:16:12.533Z,40.2690
2022-10-25T01:16:23.632Z,40.2610
2022-10-25T01:16:34.823Z,40.2490
2022-10-25T01:16:46.020Z,40.2780
2022-10-25T01:16:57.223Z,40.3030
2022-10-25T01:17:08.464Z,40.3500
2022-10-25T01:17:19.633Z,40.3440
2022-10-25T01:17:30.676Z,40.2970
2022-10-25T01:17:41.723Z,40.2970
2022-10-25T01:17:52.903Z,40.3150
2022-10-25T01:18:04.115Z,40.3260
2022-10-25T01:18:15.203Z,40.3320
2022-10-25T01:18:26.264Z,40.3500
2022-10-25T01:18:37.385Z,40.3550
2022-10-25T01:18:48.586Z,40.3210
2022-10-25T01:18:59.783Z,40.2840
2022-10-25T01:19:10.983Z,40.2670
2022-10-25T01:19:22.224Z,40.2530
2022-10-25T01:19:44.582Z,40.3000
2022-10-25T01:19:55.783Z,40.3000
2022-10-25T01:20:06.834Z,40.2820
2022-10-25T01:20:17.881Z,40.2460
2022-10-25T01:20:29.123Z,40.2650
2022-10-25T01:20:40.264Z,40.2650
2022-10-25T01:20:51.514Z,40.2530
2022-10-25T01:21:02.664Z,40.2650
2022-10-25T01:21:13.866Z,40.3000
2022-10-25T01:21:25.063Z,40.2760
2022-10-25T01:21:36.271Z,40.2650
2022-10-25T01:21:47.463Z,40.2710
2022-10-25T01:21:58.667Z,40.3000
2022-10-25T01:22:09.914Z,40.2940
2022-10-25T01:22:21.062Z,40.2440
2022-10-25T01:22:32.106Z,40.2320
2022-10-25T01:22:43.386Z,40.2260
2022-10-25T01:22:54.732Z,40.2380
2022-10-25T01:23:05.863Z,40.2460
2022-10-25T01:23:17.063Z,40.2460
2022-10-25T01:23:28.262Z,40.2710
2022-10-25T01:23:39.313Z,40.2760
2022-10-25T01:23:50.354Z,40.2530
2022-10-25T01:24:01.545Z,40.2400
2022-10-25T01:24:12.743Z,40.2340
2022-10-25T01:24:23.785Z,40.2400
2022-10-25T01:24:34.821Z,40.2400
2022-10-25T01:24:46.033Z,40.2400
2022-10-25T01:24:57.225Z,40.2710
2022-10-25T01:25:08.428Z,40.2820
2022-10-25T01:25:19.628Z,40.2820
2022-10-25T01:25:30.843Z,40.3150
2022-10-25T01:25:42.024Z,40.3380
2022-10-25T01:25:53.225Z,40.3380
2022-10-25T01:26:04.424Z,40.3830
2022-10-25T01:26:15.622Z,40.4070
2022-10-25T01:26:26.663Z,40.4190
2022-10-25T01:26:37.703Z,40.4360
2022-10-25T01:26:48.904Z,40.4070
2022-10-25T01:27:00.104Z,40.3480
2022-10-25T01:27:11.303Z,40.3420
2022-10-25T01:27:22.343Z,40.3710
2022-10-25T01:27:33.393Z,40.3880
2022-10-25T01:27:44.645Z,40.4300
2022-10-25T01:28:07.994Z,40.4770
2022-10-25T01:28:19.151Z,40.4360
2022-10-25T01:28:30.344Z,40.4070
2022-10-25T01:28:41.413Z,40.3420
2022-10-25T01:28:52.474Z,40.3110
2022-10-25T01:29:03.624Z,40.3110
2022-10-25T01:29:14.835Z,40.3170
2022-10-25T01:29:25.895Z,40.3300
2022-10-25T01:29:36.943Z,40.3590
2022-10-25T01:29:48.110Z,40.3300
2022-10-25T01:29:59.304Z,40.3300
2022-10-25T01:30:10.503Z,40.3710
2022-10-25T01:30:21.714Z,40.4190
2022-10-25T01:30:32.844Z,40.4130
2022-10-25T01:30:43.903Z,40.4130
2022-10-25T01:30:54.993Z,40.3650
2022-10-25T01:31:06.183Z,40.4300
2022-10-25T01:31:17.383Z,40.4300
2022-10-25T01:31:28.588Z,40.4360
2022-10-25T01:31:39.654Z,40.4070
2022-10-25T01:31:50.726Z,40.4130
2022-10-25T01:32:01.865Z,40.3970
2022-10-25T01:32:13.063Z,40.3550
2022-10-25T01:32:24.263Z,40.3440
2022-10-25T01:32:35.463Z,40.3380
2022-10-25T01:32:46.787Z,40.3260
2022-10-25T01:32:58.223Z,40.3380
2022-10-25T01:33:09.383Z,40.3110
2022-10-25T01:33:20.585Z,40.3230
2022-10-25T01:33:31.783Z,40.3230
2022-10-25T01:33:42.983Z,40.3300
2022-10-25T01:33:54.192Z,40.3360
2022-10-25T01:34:05.384Z,40.3480
2022-10-25T01:34:16.586Z,40.3300
2022-10-25T01:34:27.784Z,40.3670
2022-10-25T01:34:38.984Z,40.3800
2022-10-25T01:34:50.043Z,40.3550
2022-10-25T01:35:01.114Z,40.3210
2022-10-25T01:35:12.263Z,40.2910
2022-10-25T01:35:23.357Z,40.2840
2022-10-25T01:35:34.412Z,40.3090
2022-10-25T01:35:45.463Z,40.3420
2022-10-25T01:35:56.543Z,40.3540
2022-10-25T01:36:07.670Z,40.3770
2022-10-25T01:36:18.699Z,40.3420
2022-10-25T01:36:29.723Z,40.3110
2022-10-25T01:36:40.908Z,40.3230
2022-10-25T01:36:51.954Z,40.3170
2022-10-25T01:37:03.047Z,40.3050
2022-10-25T01:37:14.184Z,40.2980
2022-10-25T01:37:25.386Z,40.3210
2022-10-25T01:37:36.584Z,40.3500
2022-10-25T01:37:48.267Z,40.3640
2022-10-25T01:37:59.623Z,40.4270
2022-10-25T01:38:10.826Z,40.4410
2022-10-25T01:38:21.868Z,40.3930
2022-10-25T01:38:32.903Z,40.3500
2022-10-25T01:38:44.111Z,40.3580
2022-10-25T01:38:55.156Z,40.3580
2022-10-25T01:39:06.196Z,40.3640
2022-10-25T01:39:17.383Z,40.3870
2022-10-25T01:39:28.583Z,40.3980
2022-10-25T01:39:39.626Z,40.3810
2022-10-25T01:39:50.673Z,40.3870
2022-10-25T01:40:01.741Z,40.3690
2022-10-25T01:40:12.810Z,40.3810
2022-10-25T01:40:23.944Z,40.4210
2022-10-25T01:40:35.181Z,40.4520
2022-10-25T01:40:46.228Z,40.4270
2022-10-25T01:40:57.293Z,40.4520
2022-10-25T01:41:08.343Z,40.4690
2022-10-25T01:41:19.403Z,40.4690
2022-10-25T01:41:30.511Z,40.4040
2022-10-25T01:41:41.573Z,40.3500
2022-10-25T01:41:52.643Z,40.3330
2022-10-25T01:42:03.783Z,40.3440
2022-10-25T01:42:14.823Z,40.3480
2022-10-25T01:42:25.873Z,40.3590
2022-10-25T01:42:37.073Z,40.3880
2022-10-25T01:42:48.266Z,40.4360
2022-10-25T01:42:59.464Z,40.4130
2022-10-25T01:43:10.673Z,40.3540
2022-10-25T01:43:21.746Z,40.3630
2022-10-25T01:43:32.819Z,40.3500
2022-10-25T01:43:43.943Z,40.3980
2022-10-25T01:43:55.143Z,40.4630
2022-10-25T01:44:06.345Z,40.4520
2022-10-25T01:44:17.544Z,40.3810
2022-10-25T01:44:28.805Z,40.3860
2022-10-25T01:44:39.879Z,40.4270
2022-10-25T01:44:50.930Z,40.3920
2022-10-25T01:45:02.026Z,40.3440
2022-10-25T01:45:13.235Z,40.3440
2022-10-25T01:45:24.425Z,40.3270
2022-10-25T01:45:35.658Z,40.3380
2022-10-25T01:45:46.825Z,40.3560
2022-10-25T01:45:58.027Z,40.3690
2022-10-25T01:46:09.223Z,40.4090
2022-10-25T01:46:20.423Z,40.3860
2022-10-25T01:46:31.629Z,40.3560
2022-10-25T01:46:42.822Z,40.3930
2022-10-25T01:46:54.027Z,40.3640
2022-10-25T01:47:05.223Z,40.3810
2022-10-25T01:47:16.423Z,40.3860
2022-10-25T01:47:27.491Z,40.3810
2022-10-25T01:47:38.541Z,40.3630
2022-10-25T01:47:49.849Z,40.3630
2022-10-25T01:48:01.273Z,40.4210
2022-10-25T01:48:12.423Z,40.3980
2022-10-25T01:48:23.623Z,40.3690
2022-10-25T01:48:34.823Z,40.3980
2022-10-25T01:48:46.023Z,40.4580
2022-10-25T01:48:57.223Z,40.4690
2022-10-25T01:49:08.431Z,40.5040
2022-10-25T01:49:19.623Z,40.5100
2022-10-25T01:49:30.824Z,40.4460
2022-10-25T01:49:42.026Z,40.4090
2022-10-25T01:49:53.223Z,40.3860
2022-10-25T01:50:04.424Z,40.3860
2022-10-25T01:50:15.641Z,40.3810
2022-10-25T01:50:26.693Z,40.3920
2022-10-25T01:50:37.790Z,40.3690
2022-10-25T01:50:48.904Z,40.3750
2022-10-25T01:51:00.110Z,40.3750
2022-10-25T01:51:11.160Z,40.3810
2022-10-25T01:51:22.224Z,40.3690
2022-10-25T01:51:33.263Z,40.3560
2022-10-25T01:51:44.323Z,40.3560
2022-10-25T01:51:55.464Z,40.3560
2022-10-25T01:52:06.513Z,40.3980
2022-10-25T01:52:17.592Z,40.4070
2022-10-25T01:52:28.634Z,40.3710
2022-10-25T01:52:39.673Z,40.3480
2022-10-25T01:52:50.874Z,40.3480
2022-10-25T01:53:02.025Z,40.3630
2022-10-25T01:53:13.064Z,40.3750
2022-10-25T01:53:24.105Z,40.4090
2022-10-25T01:53:35.303Z,40.3810
2022-10-25T01:53:46.349Z,40.3980
2022-10-25T01:53:57.393Z,40.3920
2022-10-25T01:54:08.594Z,40.3870
2022-10-25T01:54:19.782Z,40.4040
2022-10-25T01:54:30.843Z,40.4160
2022-10-25T01:54:41.883Z,40.4020
2022-10-25T01:54:52.943Z,40.4260
2022-10-25T01:55:04.004Z,40.4490
2022-10-25T01:55:15.143Z,40.4350
2022-10-25T01:55:26.344Z,40.4270
2022-10-25T01:55:37.542Z,40.4690
2022-10-25T01:55:48.783Z,40.4460
2022-10-25T01:55:59.942Z,40.4220
2022-10-25T01:56:11.144Z,40.4100
2022-10-25T01:56:22.193Z,40.3980
2022-10-25T01:56:33.233Z,40.4090
2022-10-25T01:56:44.423Z,40.3750
2022-10-25T01:56:55.641Z,40.3920
2022-10-25T01:57:06.823Z,40.4040
2022-10-25T01:57:18.024Z,40.3920
2022-10-25T01:57:29.221Z,40.3920
2022-10-25T01:57:40.423Z,40.4210
2022-10-25T01:57:51.624Z,40.4460
2022-10-25T01:58:02.673Z,40.4630
2022-10-25T01:58:13.743Z,40.4330
2022-10-25T01:58:24.903Z,40.4090
2022-10-25T01:58:35.953Z,40.4040
2022-10-25T01:58:47.032Z,40.3750
2022-10-25T01:58:58.183Z,40.3860
2022-10-25T01:59:09.233Z,40.3980
2022-10-25T01:59:20.273Z,40.3930
2022-10-25T01:59:31.464Z,40.4040
2022-10-25T01:59:42.663Z,40.4160
2022-10-25T01:59:53.863Z,40.4270
2022-10-25T02:00:05.068Z,40.5040
2022-10-25T02:00:16.262Z,40.4870
2022-10-25T02:00:27.510Z,40.4520
2022-10-25T02:00:38.732Z,40.4350
2022-10-25T02:00:49.944Z,40.4210
2022-10-25T02:01:01.255Z,40.4100
2022-10-25T02:01:12.904Z,40.4350
2022-10-25T02:01:24.479Z,40.4460
2022-10-25T02:01:35.846Z,40.4490
2022-10-25T02:01:47.200Z,40.4740
2022-10-25T02:01:58.263Z,40.4550
2022-10-25T02:02:09.334Z,40.4850
2022-10-25T02:02:20.422Z,40.4660
2022-10-25T02:02:31.624Z,40.4910
2022-10-25T02:02:43.030Z,40.5200
2022-10-25T02:02:54.380Z,40.5410
2022-10-25T02:03:05.544Z,40.5230
2022-10-25T02:03:16.744Z,40.5290
2022-10-25T02:03:27.943Z,40.5580
2022-10-25T02:03:39.146Z,40.5750
2022-10-25T02:03:50.343Z,40.5750
2022-10-25T02:04:01.382Z,40.5870
2022-10-25T02:04:12.423Z,40.6060
2022-10-25T02:04:23.623Z,40.5100
2022-10-25T02:04:34.683Z,40.4580
2022-10-25T02:04:45.745Z,40.4270
2022-10-25T02:04:56.905Z,40.4210
2022-10-25T02:05:07.943Z,40.4210
2022-10-25T02:05:18.984Z,40.4330
2022-10-25T02:05:30.183Z,40.4380
2022-10-25T02:05:41.383Z,40.4870
2022-10-25T02:05:52.613Z,40.5230
2022-10-25T02:06:03.783Z,40.5160
2022-10-25T02:06:14.983Z,40.5160
2022-10-25T02:06:26.183Z,40.5410
2022-10-25T02:06:37.390Z,40.5040
2022-10-25T02:06:48.583Z,40.5410
2022-10-25T02:06:59.783Z,40.5350
2022-10-25T02:07:10.831Z,40.5120
2022-10-25T02:07:21.874Z,40.4870
2022-10-25T02:07:33.062Z,40.4850
2022-10-25T02:07:44.268Z,40.5020
2022-10-25T02:07:55.489Z,40.5260
2022-10-25T02:08:06.675Z,40.5260
2022-10-25T02:08:17.865Z,40.5200
2022-10-25T02:08:29.062Z,40.5240
2022-10-25T02:08:40.263Z,40.5120
2022-10-25T02:08:51.464Z,40.5180
2022-10-25T02:09:02.663Z,40.5180
2022-10-25T02:09:13.720Z,40.5120
2022-10-25T02:09:24.782Z,40.5120
2022-10-25T02:09:35.963Z,40.5240
2022-10-25T02:09:47.024Z,40.5120
2022-10-25T02:09:58.123Z,40.5240
2022-10-25T02:10:09.227Z,40.6010
2022-10-25T02:10:20.280Z,40.6130
2022-10-25T02:10:31.313Z,40.5890
2022-10-25T02:10:42.503Z,40.5830
2022-10-25T02:10:53.601Z,40.5760
2022-10-25T02:11:04.662Z,40.5640
2022-10-25T02:11:15.783Z,40.5410
2022-10-25T02:11:26.838Z,40.5410
2022-10-25T02:11:37.905Z,40.5350
2022-10-25T02:11:49.064Z,40.5410
2022-10-25T02:12:00.118Z,40.5950
2022-10-25T02:12:11.153Z,40.6420
2022-10-25T02:12:22.344Z,40.6010
2022-10-25T02:12:33.384Z,40.5640
2022-10-25T02:12:44.786Z,40.5350
2022-10-25T02:12:56.293Z,40.5590
2022-10-25T02:13:07.463Z,40.5410
2022-10-25T02:13:18.663Z,40.5410
2022-10-25T02:13:29.713Z,40.5180
2022-10-25T02:13:40.753Z,40.5180
2022-10-25T02:13:51.943Z,40.4930
2022-10-25T02:14:03.143Z,40.5300
2022-10-25T02:14:14.343Z,40.5950
2022-10-25T02:14:25.544Z,40.6010
2022-10-25T02:14:36.752Z,40.5410
2022-10-25T02:14:47.943Z,40.5240
2022-10-25T02:14:59.003Z,40.4990
2022-10-25T02:15:10.063Z,40.4790
2022-10-25T02:15:21.224Z,40.4990
2022-10-25T02:15:32.440Z,40.5260